Time;durP1;ratioP1;P1;durP2;ratioP2;P2;SDS_P1;SDS_P2;PMS_P1;PMS_P2;Temp;Humidity;BMP_temperature;BMP_pressure;BME280_temperature;BME280_humidity;BME280_pressure;Samples;Min_cycle;Max_cycle;Signal;HPM_P1;HPM_P2
2023/10/06 00:00:44;;;;;;;6.00;2.40;;;12.20;99.90;;;;;;5029642;28;20200;-67
2023/10/06 00:03:11;;;;;;;3.70;2.23;;;12.20;99.90;;;;;;5028644;28;20193;-65
2023/10/06 00:05:41;;;;;;;4.47;3.07;;;12.20;99.90;;;;;;5021500;28;20668;-63
2023/10/06 00:08:54;;;;;;;8.00;2.97;;;12.10;99.90;;;;;;5027580;28;20243;-64
2023/10/06 00:11:10;;;;;;;4.83;2.43;;;12.10;99.90;;;;;;5015576;28;20597;-64
2023/10/06 00:13:38;;;;;;;4.10;2.10;;;12.00;99.90;;;;;;5026475;28;20281;-64
2023/10/06 00:16:07;;;;;;;5.50;2.47;;;12.00;99.90;;;;;;5028340;28;20219;-63
2023/10/06 00:18:37;;;;;;;7.37;2.73;;;12.00;99.90;;;;;;5017657;28;20755;-64
2023/10/06 00:21:07;;;;;;;4.43;2.30;;;12.00;99.90;;;;;;5031838;28;20274;-63
2023/10/06 00:23:38;;;;;;;4.50;2.60;;;12.00;99.90;;;;;;5028496;28;20551;-63
2023/10/06 00:26:16;;;;;;;2.87;2.07;;;11.90;99.90;;;;;;5012438;28;20200;-65
2023/10/06 00:28:47;;;;;;;3.93;2.50;;;12.00;99.90;;;;;;5028822;28;20192;-63
2023/10/06 00:31:14;;;;;;;7.50;2.67;;;12.00;99.90;;;;;;5026861;28;20278;-63
2023/10/06 00:33:43;;;;;;;6.13;2.87;;;12.00;99.90;;;;;;5023175;28;20201;-64
2023/10/06 00:36:14;;;;;;;12.47;3.07;;;12.10;99.90;;;;;;5026860;28;20686;-65
2023/10/06 00:38:44;;;;;;;8.03;4.03;;;12.10;99.90;;;;;;5027782;28;20560;-65
2023/10/06 00:41:14;;;;;;;7.77;3.00;;;12.00;99.90;;;;;;5027957;28;20270;-64
2023/10/06 00:43:43;;;;;;;4.70;2.67;;;12.00;99.90;;;;;;5029721;28;20196;-63
2023/10/06 00:46:13;;;;;;;7.37;3.63;;;12.00;99.90;;;;;;5026183;28;20580;-64
2023/10/06 00:48:45;;;;;;;13.17;5.67;;;12.00;99.90;;;;;;5014750;28;20243;-66
2023/10/06 00:51:19;;;;;;;9.17;5.90;;;12.00;99.90;;;;;;5021419;28;20275;-64
2023/10/06 00:53:56;;;;;;;9.83;3.07;;;12.00;99.90;;;;;;5026869;28;20940;-64
2023/10/06 00:56:27;;;;;;;4.90;2.60;;;12.00;99.90;;;;;;5017857;28;20258;-68
2023/10/06 00:58:55;;;;;;;4.03;2.47;;;12.10;99.90;;;;;;5024358;28;20656;-78
2023/10/06 01:01:22;;;;;;;8.10;2.50;;;12.10;99.90;;;;;;5040447;28;20262;-66
2023/10/06 01:04:00;;;;;;;7.23;3.10;;;12.20;99.90;;;;;;5027741;28;20219;-65
2023/10/06 01:06:36;;;;;;;6.93;3.07;;;12.20;99.90;;;;;;5022360;28;20774;-66
2023/10/06 01:09:22;;;;;;;3.80;2.37;;;12.10;99.90;;;;;;5027528;28;20219;-66
2023/10/06 01:11:51;;;;;;;9.20;3.33;;;12.10;99.90;;;;;;5018332;28;20558;-68
2023/10/06 01:14:26;;;;;;;8.67;2.97;;;12.10;99.90;;;;;;5028391;28;20191;-68
2023/10/06 01:17:08;;;;;;;8.60;3.33;;;12.10;99.90;;;;;;5017141;28;20303;-67
2023/10/06 01:19:37;;;;;;;9.37;3.10;;;12.10;99.90;;;;;;5025421;28;20185;-68
2023/10/06 01:22:22;;;;;;;9.30;3.03;;;12.10;99.90;;;;;;5026080;28;20258;-69
2023/10/06 01:24:49;;;;;;;5.53;3.00;;;12.00;99.90;;;;;;5026625;28;20196;-69
2023/10/06 01:27:16;;;;;;;5.90;2.77;;;12.00;99.90;;;;;;5027175;28;20219;-68
2023/10/06 01:29:45;;;;;;;5.97;2.93;;;12.00;99.90;;;;;;5014287;28;20215;-69
2023/10/06 01:32:15;;;;;;;7.57;2.80;;;12.00;99.90;;;;;;5027983;28;20597;-68
2023/10/06 01:34:44;;;;;;;8.23;2.60;;;12.00;99.90;;;;;;5023896;28;20192;-67
2023/10/06 01:37:11;;;;;;;6.87;3.03;;;12.00;99.90;;;;;;4997912;28;20279;-69
2023/10/06 01:39:39;;;;;;;5.83;3.03;;;11.90;99.90;;;;;;5024084;28;20625;-68
2023/10/06 01:42:07;;;;;;;5.67;2.83;;;11.90;99.90;;;;;;5023877;28;20238;-69
2023/10/06 01:44:35;;;;;;;8.23;3.00;;;11.90;99.90;;;;;;5022126;28;20640;-70
2023/10/06 01:47:05;;;;;;;5.47;3.23;;;11.90;99.90;;;;;;5031715;28;20235;-67
2023/10/06 01:49:36;;;;;;;9.27;3.70;;;11.90;99.90;;;;;;5034227;28;20199;-68
2023/10/06 01:52:04;;;;;;;5.63;3.07;;;11.90;99.90;;;;;;5028012;28;20246;-69
2023/10/06 01:54:35;;;;;;;7.70;3.43;;;11.90;99.90;;;;;;5017906;28;20595;-70
2023/10/06 01:57:06;;;;;;;4.70;2.73;;;11.90;99.90;;;;;;5030502;28;20302;-70
2023/10/06 01:59:37;;;;;;;11.03;3.80;;;11.90;99.90;;;;;;5030020;28;20196;-68
2023/10/06 02:06:04;;;;;;;7.10;2.60;;;11.90;99.90;;;;;;5015563;28;20275;-76
2023/10/06 02:08:31;;;;;;;5.53;2.97;;;12.00;99.90;;;;;;5034159;28;20782;-69
2023/10/06 02:11:01;;;;;;;5.90;2.77;;;12.00;99.90;;;;;;5032086;28;20757;-68
2023/10/06 02:13:29;;;;;;;5.57;2.60;;;12.00;99.90;;;;;;5033394;28;20196;-67
2023/10/06 02:16:01;;;;;;;5.40;2.80;;;12.10;99.90;;;;;;5033510;28;20224;-68
2023/10/06 02:18:37;;;;;;;8.00;2.70;;;12.10;99.90;;;;;;5033675;28;20224;-68
2023/10/06 02:21:16;;;;;;;6.20;2.83;;;12.10;99.90;;;;;;5026568;28;20200;-67
2023/10/06 02:23:44;;;;;;;3.30;2.30;;;12.10;99.90;;;;;;5015808;28;20211;-64
2023/10/06 02:26:12;;;;;;;10.80;2.80;;;12.10;99.90;;;;;;5032620;28;20646;-64
2023/10/06 02:28:48;;;;;;;5.83;3.20;;;12.20;99.90;;;;;;5017596;28;20250;-67
2023/10/06 02:31:23;;;;;;;7.33;2.90;;;12.10;99.90;;;;;;5027449;28;20196;-66
2023/10/06 02:33:53;;;;;;;5.20;2.77;;;12.10;99.90;;;;;;5023614;28;20303;-67
2023/10/06 02:36:26;;;;;;;5.27;3.07;;;12.10;99.90;;;;;;5033951;28;20307;-66
2023/10/06 02:38:53;;;;;;;7.17;2.67;;;12.10;99.90;;;;;;5034155;28;20286;-69
2023/10/06 02:41:26;;;;;;;6.67;2.57;;;12.10;99.90;;;;;;5030305;28;20181;-79
2023/10/06 02:43:54;;;;;;;4.87;3.50;;;12.00;99.90;;;;;;5033184;28;20200;-72
2023/10/06 02:46:25;;;;;;;5.83;3.27;;;12.00;99.90;;;;;;5032134;28;20286;-71
2023/10/06 02:48:53;;;;;;;5.30;2.60;;;11.90;99.90;;;;;;5031089;28;20673;-85
2023/10/06 02:51:32;;;;;;;6.97;2.90;;;11.90;99.90;;;;;;5034113;28;20223;-70
2023/10/06 02:54:22;;;;;;;14.23;3.20;;;12.00;99.90;;;;;;5017636;28;20199;-71
2023/10/06 02:56:50;;;;;;;6.30;3.83;;;12.00;99.90;;;;;;5031456;28;20687;-69
2023/10/06 02:59:26;;;;;;;5.30;2.37;;;12.00;99.90;;;;;;5028880;28;20195;-68
2023/10/06 03:02:00;;;;;;;6.80;2.83;;;12.10;99.90;;;;;;5027551;28;20207;-68
2023/10/06 03:04:28;;;;;;;5.97;3.20;;;11.90;99.90;;;;;;5027310;28;20746;-68
2023/10/06 03:06:59;;;;;;;7.50;3.60;;;11.90;99.90;;;;;;5026650;28;20821;-64
2023/10/06 03:09:44;;;;;;;7.53;3.87;;;12.00;99.90;;;;;;5030744;28;20656;-66
2023/10/06 03:12:15;;;;;;;6.87;3.20;;;11.90;99.90;;;;;;5032435;28;20201;-65
2023/10/06 03:14:43;;;;;;;12.30;3.37;;;12.00;99.90;;;;;;5029479;28;20212;-70
2023/10/06 03:17:13;;;;;;;4.60;2.70;;;11.90;99.90;;;;;;5026200;28;20231;-66
2023/10/06 03:19:40;;;;;;;4.93;2.53;;;12.00;99.90;;;;;;5030083;28;20216;-66
2023/10/06 03:22:13;;;;;;;4.57;2.50;;;12.00;99.90;;;;;;5028433;28;20197;-67
2023/10/06 03:24:44;;;;;;;4.70;2.60;;;11.90;99.90;;;;;;5021628;28;20275;-67
2023/10/06 03:27:14;;;;;;;7.53;3.73;;;12.00;99.90;;;;;;5030191;28;20559;-69
2023/10/06 03:29:54;;;;;;;7.43;3.97;;;11.90;99.90;;;;;;5031243;28;20651;-70
2023/10/06 03:32:38;;;;;;;7.03;4.90;;;12.00;99.90;;;;;;5018618;28;20556;-69
2023/10/06 03:35:55;;;;;;;5.83;3.80;;;11.80;99.90;;;;;;5029854;28;20199;-67
2023/10/06 03:43:14;;;;;;;5.90;3.17;;;11.90;99.90;;;;;;5027314;28;20189;-66
2023/10/06 03:45:43;;;;;;;4.67;2.97;;;11.90;99.90;;;;;;5030733;28;20192;-68
2023/10/06 03:48:12;;;;;;;9.70;5.23;;;11.90;99.90;;;;;;5027769;28;20268;-67
2023/10/06 03:50:43;;;;;;;12.00;2.93;;;11.90;99.90;;;;;;5027969;28;20196;-67
2023/10/06 03:53:14;;;;;;;6.00;3.57;;;11.90;99.90;;;;;;5012349;28;20222;-66
2023/10/06 03:55:45;;;;;;;10.43;3.50;;;12.00;99.90;;;;;;5030104;28;20295;-67
2023/10/06 03:58:16;;;;;;;9.17;3.57;;;11.90;99.90;;;;;;5029830;28;20246;-68
2023/10/06 04:00:52;;;;;;;4.40;2.40;;;11.90;99.90;;;;;;5028476;28;20227;-68
2023/10/06 04:03:20;;;;;;;12.23;4.80;;;11.90;99.90;;;;;;5029408;28;20219;-68
2023/10/06 04:05:48;;;;;;;7.50;3.30;;;11.90;99.90;;;;;;5030014;28;20248;-68
2023/10/06 04:08:21;;;;;;;8.17;3.60;;;11.80;99.90;;;;;;5028677;28;20239;-68
2023/10/06 04:10:51;;;;;;;5.03;2.70;;;11.90;99.90;;;;;;5027773;28;20718;-68
2023/10/06 04:13:18;;;;;;;4.93;2.23;;;11.80;99.90;;;;;;5026333;28;20267;-70
2023/10/06 04:15:54;;;;;;;6.03;2.47;;;11.80;99.90;;;;;;5028553;28;20287;-67
2023/10/06 04:18:23;;;;;;;5.17;2.40;;;11.80;99.90;;;;;;5027302;28;20790;-64
2023/10/06 04:20:54;;;;;;;5.27;2.60;;;11.80;99.90;;;;;;5028565;28;20215;-68
2023/10/06 04:23:23;;;;;;;2.80;2.40;;;11.80;99.90;;;;;;5020018;28;20196;-65
2023/10/06 04:25:56;;;;;;;3.40;2.23;;;11.80;99.90;;;;;;5025336;28;20228;-70
2023/10/06 04:28:27;;;;;;;8.40;2.90;;;11.80;99.90;;;;;;5026599;28;20192;-68
2023/10/06 04:30:58;;;;;;;3.47;2.33;;;11.80;99.90;;;;;;5028207;28;20204;-68
2023/10/06 04:33:25;;;;;;;3.87;2.53;;;11.80;99.90;;;;;;5026192;28;20203;-67
2023/10/06 04:35:55;;;;;;;8.10;3.00;;;11.80;99.90;;;;;;5026752;28;20849;-69
2023/10/06 04:38:23;;;;;;;2.73;2.20;;;11.90;99.90;;;;;;5021067;28;20212;-68
2023/10/06 04:40:51;;;;;;;8.13;2.80;;;11.80;99.90;;;;;;5026288;28;20193;-67
2023/10/06 04:43:20;;;;;;;4.63;2.53;;;11.80;99.90;;;;;;5026454;28;20189;-69
2023/10/06 04:45:47;;;;;;;6.03;2.80;;;11.90;99.90;;;;;;5028921;28;20220;-69
2023/10/06 04:48:21;;;;;;;6.03;2.63;;;11.80;99.90;;;;;;5022785;28;20668;-68
2023/10/06 04:50:51;;;;;;;5.20;3.13;;;11.80;99.90;;;;;;5025934;28;20292;-68
2023/10/06 04:53:19;;;;;;;4.73;2.30;;;11.80;99.90;;;;;;5025628;28;20188;-68
2023/10/06 04:55:46;;;;;;;5.33;2.80;;;11.80;99.90;;;;;;5023791;28;20358;-63
2023/10/06 04:58:13;;;;;;;6.00;2.63;;;11.70;99.90;;;;;;5025918;28;20236;-63
2023/10/06 05:00:41;;;;;;;11.73;2.87;;;11.80;99.90;;;;;;5028761;28;20572;-66
2023/10/06 05:03:11;;;;;;;5.83;2.37;;;11.80;99.90;;;;;;5025552;28;20612;-62
2023/10/06 05:05:40;;;;;;;7.10;2.77;;;11.90;99.90;;;;;;5027495;28;20712;-71
2023/10/06 05:08:14;;;;;;;7.57;3.20;;;11.90;99.90;;;;;;5024473;28;20590;-65
2023/10/06 05:10:41;;;;;;;5.90;2.80;;;11.80;99.90;;;;;;5024868;28;20330;-63
2023/10/06 05:13:10;;;;;;;5.90;3.43;;;11.80;99.90;;;;;;5020598;28;20193;-64
2023/10/06 05:15:40;;;;;;;3.53;2.63;;;11.80;99.90;;;;;;5023661;28;20280;-70
2023/10/06 05:18:12;;;;;;;6.80;3.67;;;11.80;99.90;;;;;;5027587;28;20216;-64
2023/10/06 05:20:39;;;;;;;6.57;2.20;;;11.80;99.90;;;;;;5026325;28;20666;-63
2023/10/06 05:23:09;;;;;;;3.23;2.40;;;11.90;99.90;;;;;;5019015;28;20191;-64
2023/10/06 05:25:37;;;;;;;5.40;3.00;;;11.90;99.90;;;;;;5027855;28;20184;-64
2023/10/06 05:28:07;;;;;;;6.00;2.63;;;11.90;99.90;;;;;;5023918;28;20203;-73
2023/10/06 05:30:34;;;;;;;7.40;2.87;;;11.90;99.90;;;;;;5027304;28;20192;-64
2023/10/06 05:33:04;;;;;;;7.60;2.93;;;11.80;99.90;;;;;;5021782;28;20196;-63
2023/10/06 05:35:38;;;;;;;6.87;3.00;;;11.90;99.90;;;;;;5029186;28;20270;-67
2023/10/06 05:38:24;;;;;;;11.03;2.63;;;11.90;99.90;;;;;;5028548;28;20286;-71
2023/10/06 05:40:51;;;;;;;6.60;2.30;;;11.90;99.90;;;;;;5017194;28;20242;-68
2023/10/06 05:43:19;;;;;;;5.17;2.53;;;11.90;99.90;;;;;;5021843;28;20307;-69
2023/10/06 05:45:52;;;;;;;10.47;3.13;;;12.00;99.90;;;;;;5018634;28;20928;-69
2023/10/06 05:48:23;;;;;;;7.00;4.67;;;12.00;99.90;;;;;;5026398;28;20534;-70
2023/10/06 05:50:52;;;;;;;6.87;2.90;;;12.00;99.90;;;;;;5027012;28;20239;-66
2023/10/06 05:53:30;;;;;;;6.20;3.30;;;12.00;99.90;;;;;;5027894;28;20224;-66
2023/10/06 05:56:02;;;;;;;11.77;2.73;;;12.10;99.90;;;;;;5025965;28;20196;-66
2023/10/06 05:58:30;;;;;;;5.33;2.03;;;12.50;99.90;;;;;;5027217;28;20201;-66
2023/10/06 06:01:04;;;;;;;5.20;2.30;;;12.80;99.90;;;;;;5025263;28;20301;-68
2023/10/06 06:03:32;;;;;;;4.33;2.10;;;13.30;99.90;;;;;;5026158;28;20660;-66
2023/10/06 06:06:08;;;;;;;6.20;2.90;;;13.80;99.90;;;;;;5023150;28;20220;-66
2023/10/06 06:08:37;;;;;;;4.87;3.17;;;14.30;99.90;;;;;;5021105;28;20557;-66
2023/10/06 06:11:05;;;;;;;5.40;2.37;;;14.70;99.90;;;;;;5027335;28;20196;-68
2023/10/06 06:13:36;;;;;;;6.37;2.83;;;15.30;99.90;;;;;;5027354;28;20279;-67
2023/10/06 06:16:05;;;;;;;7.75;2.90;;;15.70;99.90;;;;;;5026167;28;20842;-68
2023/10/06 06:18:33;;;;;;;2.92;2.33;;;16.10;99.90;;;;;;5028017;28;20687;-66
2023/10/06 06:21:02;;;;;;;2.38;2.08;;;16.60;99.90;;;;;;5026834;28;20254;-68
2023/10/06 06:23:33;;;;;;;2.97;2.20;;;17.20;99.90;;;;;;5022120;28;20581;-68
2023/10/06 06:26:01;;;;;;;7.70;2.55;;;17.50;99.90;;;;;;5026320;28;20185;-65
2023/10/06 06:28:28;;;;;;;4.32;2.10;;;18.00;99.90;;;;;;5019017;28;20271;-72
2023/10/06 06:30:55;;;;;;;3.78;2.67;;;18.00;99.90;;;;;;5027110;28;20212;-70
2023/10/06 06:33:22;;;;;;;6.03;2.92;;;18.70;99.90;;;;;;5028368;28;20224;-70
2023/10/06 06:35:52;;;;;;;4.25;2.20;;;19.30;99.90;;;;;;5032992;28;20291;-65
2023/10/06 06:38:19;;;;;;;6.72;2.78;;;19.20;99.90;;;;;;5030853;28;20758;-64
2023/10/06 06:40:46;;;;;;;5.45;2.42;;;19.80;99.90;;;;;;5032203;28;20664;-64
2023/10/06 06:43:13;;;;;;;6.57;2.42;;;19.70;99.90;;;;;;5032715;28;20250;-64
2023/10/06 06:45:40;;;;;;;4.47;3.22;;;20.40;99.90;;;;;;5030279;28;20200;-72
2023/10/06 06:48:12;;;;;;;6.00;2.50;;;20.70;99.90;;;;;;5031685;28;20411;-72
2023/10/06 06:50:42;;;;;;;3.92;2.40;;;20.30;99.90;;;;;;5032535;28;20254;-73
2023/10/06 06:53:13;;;;;;;7.43;2.60;;;21.10;99.90;;;;;;5032283;28;20196;-75
2023/10/06 06:55:40;;;;;;;6.60;2.90;;;20.40;99.90;;;;;;5030223;28;20198;-72
2023/10/06 06:58:11;;;;;;;5.10;2.38;;;20.30;99.90;;;;;;5032435;28;20291;-73
2023/10/06 07:00:39;;;;;;;3.88;2.17;;;20.30;99.90;;;;;;5032471;28;20876;-73
2023/10/06 07:03:07;;;;;;;7.57;2.33;;;20.30;99.90;;;;;;5030595;28;20271;-69
2023/10/06 07:05:35;;;;;;;5.10;2.45;;;19.30;99.90;;;;;;5029295;28;20243;-69
2023/10/06 07:08:06;;;;;;;4.28;2.10;;;19.10;99.90;;;;;;5032653;28;20290;-69
2023/10/06 07:10:38;;;;;;;7.70;2.38;;;19.00;99.90;;;;;;5032565;28;20648;-69
2023/10/06 07:13:05;;;;;;;5.60;2.30;;;20.50;99.90;;;;;;5032079;28;20188;-69
2023/10/06 07:15:33;;;;;;;7.15;2.65;;;20.60;99.90;;;;;;5024354;28;20203;-69
2023/10/06 07:18:00;;;;;;;7.55;2.33;;;22.20;99.90;;;;;;5034574;28;20196;-70
2023/10/06 07:20:30;;;;;;;4.43;2.80;;;20.60;99.90;;;;;;5044877;28;20195;-69
2023/10/06 07:23:02;;;;;;;4.72;2.50;;;19.90;99.90;;;;;;5039538;28;20192;-70
2023/10/06 07:25:29;;;;;;;3.25;2.25;;;18.30;99.90;;;;;;5044154;28;20191;-75
2023/10/06 07:27:58;;;;;;;3.42;2.45;;;17.50;99.90;;;;;;5031900;28;20200;-69
2023/10/06 07:30:34;;;;;;;4.70;2.58;;;17.10;99.90;;;;;;5020790;28;20264;-69
2023/10/06 07:33:08;;;;;;;6.03;2.47;;;16.90;99.90;;;;;;5034935;28;20187;-68
2023/10/06 07:35:43;;;;;;;4.50;2.30;;;16.90;99.90;;;;;;5029450;28;20253;-68
2023/10/06 07:38:11;;;;;;;5.53;2.25;;;17.00;99.90;;;;;;5036465;28;20726;-67
2023/10/06 07:40:38;;;;;;;5.78;2.40;;;17.30;99.90;;;;;;5022427;28;20212;-69
2023/10/06 07:43:07;;;;;;;2.65;2.00;;;17.20;99.90;;;;;;5027142;28;20193;-69
2023/10/06 07:45:34;;;;;;;6.10;2.33;;;17.20;99.90;;;;;;5038098;28;20188;-62
2023/10/06 07:48:05;;;;;;;5.88;2.30;;;17.00;99.90;;;;;;5035097;28;20192;-64
2023/10/06 07:50:36;;;;;;;3.88;2.00;;;16.60;99.90;;;;;;5039657;28;20195;-62
2023/10/06 07:53:03;;;;;;;4.65;2.50;;;16.60;99.90;;;;;;5021430;28;20298;-71
2023/10/06 07:55:31;;;;;;;3.22;2.20;;;16.70;99.90;;;;;;5043037;28;21064;-69
2023/10/06 07:58:00;;;;;;;4.43;2.30;;;16.70;99.90;;;;;;5044365;28;20715;-67
2023/10/06 08:00:29;;;;;;;4.22;2.38;;;17.10;99.90;;;;;;5034176;28;20215;-70
2023/10/06 08:02:59;;;;;;;3.00;2.25;;;16.90;99.90;;;;;;5020194;28;20209;-69
2023/10/06 08:05:27;;;;;;;9.15;2.03;;;16.90;99.90;;;;;;5039302;28;20655;-70
2023/10/06 08:08:00;;;;;;;3.83;2.20;;;17.50;99.90;;;;;;5041511;28;20758;-70
2023/10/06 08:10:30;;;;;;;5.97;2.45;;;17.90;99.90;;;;;;5041743;28;20286;-69
2023/10/06 08:13:00;;;;;;;6.93;2.10;;;17.70;99.90;;;;;;5030842;28;20632;-68
2023/10/06 08:15:29;;;;;;;2.72;2.33;;;17.60;99.90;;;;;;5032159;28;20194;-69
2023/10/06 08:17:56;;;;;;;4.65;2.22;;;18.10;99.90;;;;;;5035370;28;20195;-70
2023/10/06 08:20:25;;;;;;;6.18;2.67;;;18.10;99.90;;;;;;5016072;28;20215;-71
2023/10/06 08:22:53;;;;;;;3.10;2.20;;;18.20;99.90;;;;;;5037989;28;21101;-70
2023/10/06 08:25:23;;;;;;;6.50;2.38;;;18.00;99.90;;;;;;5026542;28;20905;-70
2023/10/06 08:27:51;;;;;;;5.75;2.55;;;17.90;99.90;;;;;;5034507;28;20204;-70
2023/10/06 08:30:19;;;;;;;3.53;2.40;;;17.90;99.90;;;;;;5041306;28;20218;-70
2023/10/06 08:32:52;;;;;;;4.30;1.90;;;18.00;99.90;;;;;;5034460;28;20204;-70
2023/10/06 08:35:20;;;;;;;3.95;2.30;;;17.90;99.90;;;;;;5032835;28;20193;-70
2023/10/06 08:37:52;;;;;;;5.47;2.33;;;17.60;99.90;;;;;;5033065;28;20208;-70
2023/10/06 08:40:22;;;;;;;6.13;2.15;;;17.60;99.90;;;;;;5036919;28;20254;-70
2023/10/06 08:42:52;;;;;;;4.13;1.95;;;17.40;99.90;;;;;;5028275;28;20257;-70
2023/10/06 08:45:30;;;;;;;7.35;2.60;;;18.00;99.90;;;;;;5036151;28;20187;-79
2023/10/06 08:48:01;;;;;;;4.50;2.30;;;22.10;99.90;;;;;;5040247;28;20768;-70
2023/10/06 08:50:32;;;;;;;5.97;2.35;;;23.70;99.90;;;;;;5031806;28;20861;-72
2023/10/06 08:53:04;;;;;;;8.23;2.25;;;25.60;99.90;;;;;;5035588;28;20210;-73
2023/10/06 08:55:33;;;;;;;3.63;2.40;;;24.60;99.90;;;;;;5025388;28;20199;-65
2023/10/06 08:58:00;;;;;;;4.60;2.40;;;25.60;99.90;;;;;;5025712;28;20187;-64
2023/10/06 09:00:34;;;;;;;6.85;2.65;;;23.00;99.90;;;;;;5033116;28;20203;-67
2023/10/06 09:03:07;;;;;;;10.70;2.80;;;23.80;99.90;;;;;;5022233;28;20737;-65
2023/10/06 09:05:44;;;;;;;5.15;2.17;;;23.10;99.90;;;;;;5032178;28;20223;-73
2023/10/06 09:08:14;;;;;;;5.05;2.28;;;24.90;99.90;;;;;;5034242;28;20228;-71
2023/10/06 09:10:53;;;;;;;4.40;2.70;;;26.10;99.90;;;;;;5034757;28;20224;-75
2023/10/06 09:13:22;;;;;;;2.95;2.03;;;26.10;99.90;;;;;;5033777;28;20208;-71
2023/10/06 09:16:02;;;;;;;5.70;2.42;;;26.10;99.90;;;;;;5040857;28;20239;-72
2023/10/06 09:18:34;;;;;;;3.35;2.47;;;25.90;99.90;;;;;;5040510;28;20195;-71
2023/10/06 09:21:13;;;;;;;2.60;1.98;;;25.60;99.90;;;;;;5035105;28;20211;-69
2023/10/06 09:23:40;;;;;;;6.45;2.15;;;27.20;99.90;;;;;;5030557;28;20195;-69
2023/10/06 09:26:13;;;;;;;5.90;2.30;;;27.70;99.90;;;;;;5040945;28;20191;-64
2023/10/06 09:28:52;;;;;;;5.15;2.53;;;27.10;99.90;;;;;;5029414;28;20211;-68
2023/10/06 09:31:46;;;;;;;2.65;2.28;;;26.90;99.90;;;;;;5033322;28;20200;-64
2023/10/06 09:34:23;;;;;;;3.55;2.33;;;28.00;99.90;;;;;;5036767;28;20715;-64
2023/10/06 09:36:51;;;;;;;6.03;2.80;;;27.70;99.90;;;;;;5028726;28;20200;-66
2023/10/06 09:39:32;;;;;;;4.47;2.40;;;26.50;99.90;;;;;;5032690;28;20715;-65
2023/10/06 09:42:05;;;;;;;3.67;2.40;;;26.20;99.90;;;;;;5030313;28;20211;-64
2023/10/06 09:44:35;;;;;;;3.25;2.47;;;28.80;99.90;;;;;;5032481;28;20531;-65
2023/10/06 09:47:04;;;;;;;5.80;2.58;;;27.80;99.90;;;;;;5036371;28;20686;-64
2023/10/06 09:49:32;;;;;;;5.00;2.22;;;26.50;99.90;;;;;;5032138;28;20201;-68
2023/10/06 09:52:03;;;;;;;3.95;2.58;;;27.80;99.90;;;;;;5025708;28;20195;-63
2023/10/06 09:54:31;;;;;;;4.75;3.00;;;25.40;99.90;;;;;;5033407;28;20199;-65
2023/10/06 09:57:00;;;;;;;4.13;2.50;;;25.00;99.90;;;;;;5039258;28;20277;-65
2023/10/06 09:59:29;;;;;;;5.53;2.50;;;25.10;99.90;;;;;;5034477;28;20216;-64
2023/10/06 10:01:57;;;;;;;4.80;2.88;;;24.30;99.90;;;;;;5033486;28;20210;-63
2023/10/06 10:04:30;;;;;;;5.18;2.65;;;24.60;99.90;;;;;;5032314;28;20191;-65
2023/10/06 10:07:01;;;;;;;6.72;2.88;;;25.70;99.90;;;;;;5020711;28;20278;-65
2023/10/06 10:09:31;;;;;;;5.97;2.80;;;27.90;99.90;;;;;;5038783;28;20749;-64
2023/10/06 10:12:10;;;;;;;6.78;2.80;;;28.10;99.90;;;;;;5040384;28;20225;-64
2023/10/06 10:15:03;;;;;;;5.10;2.95;;;27.40;99.90;;;;;;5019545;28;20309;-70
2023/10/06 10:17:47;;;;;;;4.50;2.47;;;29.10;99.90;;;;;;5044059;28;20199;-70
2023/10/06 10:20:15;;;;;;;5.10;2.75;;;30.10;99.90;;;;;;5036935;28;20295;-72
2023/10/06 10:22:43;;;;;;;7.07;2.83;;;30.60;99.90;;;;;;5037205;28;20197;-74
2023/10/06 10:25:13;;;;;;;4.80;2.70;;;30.30;99.90;;;;;;5039273;28;20192;-69
2023/10/06 10:27:43;;;;;;;5.35;3.17;;;30.60;99.90;;;;;;5035104;28;20242;-74
2023/10/06 10:30:13;;;;;;;5.53;3.08;;;31.40;99.90;;;;;;5038241;28;20891;-69
2023/10/06 10:32:42;;;;;;;6.07;2.75;;;29.90;99.90;;;;;;5033712;28;20666;-70
2023/10/06 10:35:13;;;;;;;3.15;2.85;;;30.90;99.90;;;;;;5035626;28;20215;-70
2023/10/06 10:38:02;;;;;;;3.70;2.67;;;31.30;99.90;;;;;;5036170;28;20196;-69
2023/10/06 10:40:46;;;;;;;4.43;2.90;;;30.30;99.90;;;;;;5028637;28;20606;-70
2023/10/06 10:43:15;;;;;;;8.18;3.15;;;30.30;99.90;;;;;;5036931;28;20199;-69
2023/10/06 10:45:45;;;;;;;9.23;2.90;;;28.80;99.90;;;;;;5041392;28;20675;-69
2023/10/06 10:48:13;;;;;;;8.15;2.97;;;28.10;99.90;;;;;;5033619;28;20620;-69
2023/10/06 10:51:10;;;;;;;5.32;3.00;;;27.90;99.90;;;;;;5031398;28;20623;-68
2023/10/06 10:53:44;;;;;;;4.63;2.90;;;27.90;99.90;;;;;;5029922;28;20198;-68
2023/10/06 10:56:13;;;;;;;4.72;3.17;;;27.00;99.90;;;;;;5028344;28;20229;-68
2023/10/06 10:58:49;;;;;;;6.80;3.50;;;26.90;99.90;;;;;;5033066;28;20298;-68
2023/10/06 11:01:43;;;;;;;4.80;3.28;;;27.10;99.90;;;;;;5031744;28;20226;-69
2023/10/06 11:04:12;;;;;;;5.70;3.63;;;26.90;99.90;;;;;;5034984;28;20699;-70
2023/10/06 11:06:40;;;;;;;3.03;2.60;;;26.70;99.90;;;;;;5031672;28;20680;-67
2023/10/06 11:09:26;;;;;;;8.75;3.35;;;27.00;99.90;;;;;;5035009;28;20187;-68
2023/10/06 11:11:55;;;;;;;9.80;3.15;;;26.40;99.90;;;;;;5033198;28;20617;-68
2023/10/06 11:14:43;;;;;;;5.13;3.38;;;26.20;99.90;;;;;;5031627;28;20188;-70
2023/10/06 11:17:11;;;;;;;4.80;3.20;;;24.30;99.90;;;;;;5042802;28;20188;-68
2023/10/06 11:19:40;;;;;;;8.18;2.72;;;24.40;99.90;;;;;;5035034;28;20306;-68
2023/10/06 11:22:13;;;;;;;5.88;3.10;;;24.40;99.90;;;;;;5024273;28;20223;-68
2023/10/06 11:24:41;;;;;;;6.55;2.85;;;25.20;99.90;;;;;;5028550;28;20211;-70
2023/10/06 11:27:16;;;;;;;6.10;2.70;;;24.90;99.90;;;;;;5037979;28;20187;-68
2023/10/06 11:29:47;;;;;;;3.70;2.60;;;24.60;99.90;;;;;;5034084;28;20196;-68
2023/10/06 11:32:14;;;;;;;4.70;2.60;;;24.20;99.90;;;;;;5033597;28;20195;-70
2023/10/06 11:34:43;;;;;;;6.65;3.42;;;23.90;99.90;;;;;;5032029;28;20207;-65
2023/10/06 11:37:11;;;;;;;6.03;3.17;;;23.10;99.90;;;;;;5039631;28;20249;-65
2023/10/06 11:39:39;;;;;;;6.18;2.83;;;21.40;99.90;;;;;;5043155;28;20667;-63
2023/10/06 11:42:25;;;;;;;5.15;3.03;;;21.30;99.90;;;;;;5034405;28;20188;-64
2023/10/06 11:44:56;;;;;;;5.90;3.17;;;21.50;99.90;;;;;;5036709;28;20206;-65
2023/10/06 11:47:26;;;;;;;12.68;5.20;;;21.40;99.90;;;;;;5030488;28;20199;-63
2023/10/06 11:49:58;;;;;;;6.70;4.05;;;22.60;99.90;;;;;;5034639;28;20314;-64
2023/10/06 11:52:29;;;;;;;5.80;2.80;;;24.00;99.90;;;;;;5030255;28;20864;-64
2023/10/06 11:54:58;;;;;;;5.30;2.63;;;24.60;99.90;;;;;;5031238;28;20916;-64
2023/10/06 11:57:47;;;;;;;6.60;3.88;;;25.00;99.90;;;;;;5035373;28;20200;-63
2023/10/06 12:00:19;;;;;;;4.00;3.08;;;24.00;99.90;;;;;;5032307;28;20220;-64
2023/10/06 12:02:53;;;;;;;6.88;4.43;;;23.80;99.90;;;;;;5030525;28;20286;-64
2023/10/06 12:05:22;;;;;;;5.82;3.92;;;24.00;99.90;;;;;;5026574;28;20283;-65
2023/10/06 12:07:49;;;;;;;10.32;4.55;;;24.00;99.90;;;;;;5030652;28;20237;-69
2023/10/06 12:10:18;;;;;;;5.55;3.60;;;23.10;99.90;;;;;;5038329;28;20246;-63
2023/10/06 12:12:46;;;;;;;5.30;3.50;;;23.30;99.90;;;;;;5027246;28;20203;-63
2023/10/06 12:15:14;;;;;;;9.32;3.60;;;23.50;99.90;;;;;;5035968;28;20207;-63
2023/10/06 12:17:42;;;;;;;4.50;3.60;;;23.40;99.90;;;;;;5033354;28;20199;-63
2023/10/06 12:20:14;;;;;;;3.58;3.08;;;23.30;99.90;;;;;;5025963;28;20228;-66
2023/10/06 12:22:42;;;;;;;9.98;3.42;;;23.10;99.90;;;;;;5027967;28;20195;-65
2023/10/06 12:25:16;;;;;;;9.98;3.05;;;22.00;99.90;;;;;;5036197;28;20238;-64
2023/10/06 12:27:44;;;;;;;5.53;3.33;;;22.20;99.90;;;;;;5034431;28;20559;-63
2023/10/06 12:30:12;;;;;;;5.40;2.70;;;22.10;99.90;;;;;;5030383;28;20668;-64
2023/10/06 12:32:50;;;;;;;6.65;2.80;;;22.00;99.90;;;;;;5030396;28;20207;-63
2023/10/06 12:35:18;;;;;;;3.85;3.15;;;22.00;99.90;;;;;;5027600;28;20359;-66
2023/10/06 12:37:46;;;;;;;5.47;3.40;;;21.70;99.90;;;;;;5020177;28;20196;-64
2023/10/06 12:40:15;;;;;;;5.68;2.85;;;21.80;99.90;;;;;;5033644;28;20243;-64
2023/10/06 12:42:43;;;;;;;7.72;3.28;;;22.30;99.90;;;;;;5033334;28;20621;-63
2023/10/06 12:45:17;;;;;;;6.60;3.08;;;22.20;99.90;;;;;;5031464;28;20216;-64
2023/10/06 12:47:46;;;;;;;5.93;2.97;;;22.20;99.90;;;;;;5034874;28;20194;-72
2023/10/06 12:50:17;;;;;;;6.20;2.78;;;22.00;99.90;;;;;;5033705;28;20215;-64
2023/10/06 12:52:55;;;;;;;6.45;2.70;;;21.80;99.90;;;;;;5026621;28;20231;-64
2023/10/06 12:55:24;;;;;;;5.10;2.97;;;22.70;99.90;;;;;;5030109;28;21441;-64
2023/10/06 12:57:53;;;;;;;5.45;2.63;;;22.30;99.90;;;;;;5026176;28;20219;-63
2023/10/06 13:00:20;;;;;;;3.90;3.15;;;21.80;99.90;;;;;;5039123;28;20213;-63
2023/10/06 13:02:50;;;;;;;3.10;2.25;;;22.00;99.90;;;;;;5031995;28;20574;-63
2023/10/06 13:05:18;;;;;;;5.88;2.60;;;21.70;99.90;;;;;;5033670;28;20731;-63
2023/10/06 13:07:47;;;;;;;5.43;3.05;;;21.60;99.90;;;;;;5030797;28;20224;-70
2023/10/06 13:10:16;;;;;;;3.30;2.72;;;21.50;99.90;;;;;;5026676;28;20188;-69
2023/10/06 13:12:44;;;;;;;8.18;3.25;;;21.40;99.90;;;;;;5029045;28;20644;-70
2023/10/06 13:15:19;;;;;;;4.90;2.80;;;21.20;99.90;;;;;;5033406;28;20261;-69